Time;durP1;ratioP1;P1;durP2;ratioP2;P2;SDS_P1;SDS_P2;PMS_P1;PMS_P2;Temp;Humidity;BMP_temperature;BMP_pressure;BME280_temperature;BME280_humidity;BME280_pressure;Samples;Min_cycle;Max_cycle;Signal;HPM_P1;HPM_P2
2023/06/27 00:06:59;;;;;;;7.90;5.60;;;;;;;18.86;68.06;98150.69;436260;1254;99222;-44
2023/06/27 00:17:12;;;;;;;7.80;5.80;;;;;;;18.99;68.41;98163.16;436371;1252;112198;-42
2023/06/27 00:27:19;;;;;;;10.90;7.10;;;;;;;19.07;68.38;98177.69;437251;1248;108031;-41
2023/06/27 00:37:26;;;;;;;9.00;5.90;;;;;;;18.67;69.13;98192.35;436213;1250;99312;-45
2023/06/27 00:47:34;;;;;;;6.60;5.80;;;;;;;18.37;70.47;98191.30;436319;1253;108854;-42
2023/06/27 00:57:42;;;;;;;8.00;5.50;;;;;;;18.24;71.82;98179.36;436266;1249;99333;-43
2023/06/27 01:07:47;;;;;;;;;;;;;;;18.23;72.22;98153.69;436584;1253;112265;-45
2023/06/27 01:17:55;;;;;;;10.10;5.60;;;;;;;18.28;72.61;98135.83;437327;1250;107044;-42
2023/06/27 01:38:08;;;;;;;7.20;5.50;;;;;;;18.45;73.14;98105.58;435387;1255;108586;-43
2023/06/27 01:48:16;;;;;;;7.50;5.50;;;;;;;18.58;73.43;98106.12;435633;1253;99224;-41
2023/06/27 01:58:23;;;;;;;7.00;6.20;;;;;;;18.90;73.46;98113.40;435642;1254;111204;-42
2023/06/27 02:08:34;;;;;;;8.50;6.60;;;;;;;19.06;73.33;98112.49;435293;1253;108734;-42
2023/06/27 02:18:41;;;;;;;8.90;6.80;;;;;;;18.91;73.37;98122.05;435591;1248;99241;-44
2023/06/27 02:28:48;;;;;;;7.30;6.60;;;;;;;18.72;73.84;98139.69;435978;1254;108607;-42
2023/06/27 02:38:56;;;;;;;7.70;7.00;;;;;;;18.51;74.78;98141.98;436226;1261;99321;-42
2023/06/27 02:49:03;;;;;;;7.70;7.00;;;;;;;18.45;75.37;98131.60;436347;1252;111809;-44
2023/06/27 02:59:10;;;;;;;9.20;7.50;;;;;;;18.44;75.98;98129.09;436115;1247;108075;-43
2023/06/27 03:09:16;;;;;;;7.30;6.60;;;;;;;18.45;76.22;98137.49;436376;1248;99224;-43
2023/06/27 03:19:24;;;;;;;10.40;6.80;;;;;;;18.47;77.03;98149.45;436126;1253;107929;-42
2023/06/27 03:29:49;;;;;;;9.10;6.90;;;;;;;18.47;76.88;98153.64;436001;1251;456437;-42
2023/06/27 03:39:57;;;;;;;9.10;7.70;;;;;;;18.48;77.05;98159.62;436272;1248;112452;-43
2023/06/27 03:50:04;;;;;;;8.50;7.60;;;;;;;18.47;77.51;98169.21;436149;1265;108290;-43
2023/06/27 04:00:13;;;;;;;8.40;7.60;;;;;;;18.52;77.70;98173.37;436346;1254;99243;-44
2023/06/27 04:10:20;;;;;;;9.00;6.80;;;;;;;18.37;78.17;98187.50;436388;1248;107953;-43
2023/06/27 04:20:25;;;;;;;10.10;6.90;;;;;;;18.30;78.43;98195.80;436444;1252;99249;-43
2023/06/27 04:30:33;;;;;;;14.50;5.80;;;;;;;18.26;79.30;98202.50;436270;1262;111106;-42
2023/06/27 04:40:39;;;;;;;10.50;5.60;;;;;;;18.09;79.15;98218.64;436218;1252;109325;-42
2023/06/27 04:50:46;;;;;;;6.20;4.40;;;;;;;17.88;78.84;98236.17;436224;1261;99218;-43
2023/06/27 05:00:52;;;;;;;7.40;5.40;;;;;;;17.87;78.48;98245.83;436204;1253;108390;-43
2023/06/27 05:10:59;;;;;;;10.70;5.80;;;;;;;18.03;78.70;98255.45;436286;1253;99282;-44
2023/06/27 05:21:07;;;;;;;9.90;5.60;;;;;;;17.80;78.40;98254.95;436286;1247;112012;-43
2023/06/27 05:31:14;;;;;;;11.10;6.20;;;;;;;17.80;78.08;98261.85;436184;1262;107383;-43
2023/06/27 05:41:23;;;;;;;8.00;4.70;;;;;;;17.86;77.99;98276.91;436341;1253;98699;-43
2023/06/27 05:51:30;;;;;;;12.40;5.60;;;;;;;18.00;77.99;98284.98;436259;1252;108124;-43
2023/06/27 06:01:38;;;;;;;9.90;5.50;;;;;;;17.90;77.98;98280.88;436362;1248;99209;-45
2023/06/27 06:11:45;;;;;;;10.60;5.50;;;;;;;18.38;78.15;98282.34;436362;1252;112982;-43
2023/06/27 06:21:52;;;;;;;8.30;5.00;;;;;;;19.05;77.04;98290.40;436196;1252;107128;-42
2023/06/27 06:32:00;;;;;;;12.00;6.90;;;;;;;18.58;76.36;98299.98;436141;1253;99252;-43
2023/06/27 06:42:07;;;;;;;12.50;5.60;;;;;;;18.35;76.32;98309.37;436002;1252;107456;-42
2023/06/27 06:52:15;;;;;;;10.30;5.60;;;;;;;18.36;76.31;98314.82;436191;1253;99256;-42
2023/06/27 07:02:22;;;;;;;10.60;5.80;;;;;;;18.31;76.60;98314.67;436124;1251;111816;-43
2023/06/27 07:12:29;;;;;;;9.00;5.20;;;;;;;18.32;76.44;98307.38;436578;1247;108652;-42
2023/06/27 07:22:36;;;;;;;7.80;4.40;;;;;;;18.16;76.19;98306.24;436276;1248;98909;-42
2023/06/27 07:32:44;;;;;;;7.30;4.50;;;;;;;18.19;75.46;98306.69;436322;1253;109244;-42
2023/06/27 07:42:51;;;;;;;10.50;4.80;;;;;;;18.31;75.12;98316.93;436240;1252;98854;-44
2023/06/27 07:52:57;;;;;;;11.50;4.70;;;;;;;19.12;74.15;98315.19;436168;1250;111724;-43
2023/06/27 08:03:03;;;;;;;10.00;4.30;;;;;;;20.32;72.44;98310.20;436206;1247;107936;-43
2023/06/27 08:13:11;;;;;;;7.40;3.60;;;;;;;20.96;69.70;98311.02;436405;1251;99242;-42
2023/06/27 08:23:19;;;;;;;9.30;3.40;;;;;;;21.48;67.63;98312.61;436312;1248;108557;-42
2023/06/27 08:33:26;;;;;;;8.40;3.60;;;;;;;21.46;65.67;98315.25;436187;1251;99205;-42
2023/06/27 08:43:33;;;;;;;8.00;3.50;;;;;;;21.59;65.28;98323.73;436297;1253;111983;-44
2023/06/27 08:53:43;;;;;;;9.30;3.30;;;;;;;21.92;63.53;98318.54;436244;1248;109322;-43
2023/06/27 09:03:53;;;;;;;5.70;3.00;;;;;;;22.57;62.49;98322.75;436321;1253;99314;-41
2023/06/27 09:14:01;;;;;;;6.30;2.70;;;;;;;22.64;60.84;98330.73;436434;1253;107999;-40
2023/06/27 09:24:09;;;;;;;6.70;1.80;;;;;;;22.49;58.75;98337.39;436210;1253;97992;-41
2023/06/27 09:34:15;;;;;;;;;;;;;;;22.78;56.31;98344.51;436918;1252;111875;-41
2023/06/27 09:54:30;;;;;;;5.10;2.20;;;;;;;21.90;55.46;98359.95;436448;1251;99241;-41
2023/06/27 10:04:37;;;;;;;2.80;2.00;;;;;;;22.39;55.62;98361.38;436318;1253;108344;-42
2023/06/27 10:14:48;;;;;;;8.00;2.10;;;;;;;22.41;53.94;98356.45;436385;1253;99218;-40
2023/06/27 10:25:01;;;;;;;5.40;2.30;;;;;;;22.19;53.97;98354.77;436382;1253;112633;-41
2023/06/27 10:45:20;;;;;;;9.50;2.50;;;;;;;22.04;52.76;98360.59;436574;1252;99231;-42
2023/06/27 10:55:30;;;;;;;7.70;2.10;;;;;;;21.93;53.00;98353.95;436400;1253;107316;-43
2023/06/27 11:05:49;;;;;;;4.80;1.80;;;;;;;21.98;52.88;98343.15;436376;1248;99212;-42
2023/06/27 11:15:58;;;;;;;4.50;1.80;;;;;;;22.31;51.86;98340.80;436370;1253;111035;-41
2023/06/27 11:26:05;;;;;;;4.40;1.70;;;;;;;22.54;50.70;98329.40;436422;1248;108019;-42
2023/06/27 11:36:12;;;;;;;4.10;1.70;;;;;;;22.46;48.95;98326.36;436348;1247;98792;-42
2023/06/27 11:46:22;;;;;;;3.30;1.50;;;;;;;22.33;47.33;98317.42;436453;1248;107948;-43
2023/06/27 11:56:30;;;;;;;7.70;1.40;;;;;;;22.58;46.52;98308.39;436362;1247;99202;-44
2023/06/27 12:06:36;;;;;;;5.40;1.20;;;;;;;22.99;46.04;98304.18;436373;1253;111209;-43
2023/06/27 12:16:44;;;;;;;3.00;1.70;;;;;;;23.21;45.12;98296.55;436367;1252;109283;-43
2023/06/27 12:26:51;;;;;;;5.20;1.60;;;;;;;22.68;44.30;98299.62;436350;1248;99218;-42
2023/06/27 12:36:58;;;;;;;1.90;1.60;;;;;;;22.40;45.81;98291.65;436473;1253;109362;-45
2023/06/27 12:47:04;;;;;;;3.90;2.20;;;;;;;22.24;45.89;98290.69;436302;1250;97986;-42
2023/06/27 12:57:12;;;;;;;7.70;1.90;;;;;;;22.34;46.54;98282.15;436189;1254;113701;-42
2023/06/27 13:07:19;;;;;;;6.50;2.00;;;;;;;22.61;45.44;98277.77;436375;1253;107637;-44
2023/06/27 13:17:27;;;;;;;4.30;1.40;;;;;;;21.51;46.74;98284.00;436449;1248;98896;-42
2023/06/27 13:27:33;;;;;;;7.40;1.70;;;;;;;21.14;49.98;98288.59;436354;1253;108282;-41
2023/06/27 13:37:39;;;;;;;;;;;;;;;21.12;47.91;98289.09;436444;1253;99221;-43
2023/06/27 13:48:04;;;;;;;4.70;1.40;;;;;;;21.20;46.11;98288.94;436383;1252;111925;-43
2023/06/27 13:58:12;;;;;;;5.60;1.50;;;;;;;21.51;45.33;98286.45;436351;1251;107677;-44
2023/06/27 14:08:18;;;;;;;9.50;2.00;;;;;;;21.21;45.10;98295.38;436419;1253;99230;-42
2023/06/27 14:18:26;;;;;;;5.60;1.70;;;;;;;21.20;45.76;98304.20;436273;1249;107934;-43
2023/06/27 14:28:33;;;;;;;6.30;1.20;;;;;;;21.10;46.83;98292.77;436278;1251;97959;-43
2023/06/27 14:38:39;;;;;;;;;;;;;;;21.31;46.81;98296.27;436475;1253;111365;-42
2023/06/27 14:48:49;;;;;;;3.10;1.60;;;;;;;21.05;46.52;98284.51;436185;1252;108587;-41
2023/06/27 14:58:56;;;;;;;4.00;1.40;;;;;;;20.76;46.44;98288.38;436362;1251;98572;-42
2023/06/27 15:09:04;;;;;;;3.60;1.80;;;;;;;20.28;47.05;98289.20;436422;1248;107447;-41
2023/06/27 15:19:12;;;;;;;4.50;2.10;;;;;;;19.95;47.65;98291.59;436392;1247;99211;-42
2023/06/27 15:29:20;;;;;;;3.10;1.30;;;;;;;20.02;48.35;98277.29;435860;1253;755956;-41
2023/06/27 15:39:28;;;;;;;2.10;1.40;;;;;;;20.46;48.78;98276.36;436453;1253;108477;-41
2023/06/27 15:49:35;;;;;;;4.10;1.90;;;;;;;20.70;48.62;98273.20;435819;1251;98845;-41
2023/06/27 15:59:42;;;;;;;4.80;2.30;;;;;;;20.66;48.76;98264.38;435804;1250;108868;-42
2023/06/27 16:09:49;;;;;;;7.10;1.50;;;;;;;20.55;48.58;98259.94;435648;1251;99308;-42
2023/06/27 16:19:56;;;;;;;5.10;1.70;;;;;;;19.91;48.64;98260.29;435535;1253;112256;-44
2023/06/27 16:30:03;;;;;;;4.50;1.60;;;;;;;19.59;49.04;98262.65;435354;1264;107530;-43
2023/06/27 16:40:12;;;;;;;6.00;1.60;;;;;;;19.54;49.38;98260.65;435199;1251;99221;-43
2023/06/27 16:50:20;;;;;;;2.40;1.30;;;;;;;19.64;49.60;98256.34;435183;1256;109289;-43
2023/06/27 17:00:28;;;;;;;9.00;2.50;;;;;;;19.58;49.79;98265.67;435264;1253;98836;-42
2023/06/27 17:10:40;;;;;;;4.10;2.30;;;;;;;19.38;49.33;98272.55;435203;1253;110895;-42
2023/06/27 17:20:48;;;;;;;13.50;1.60;;;;;;;19.15;48.88;98283.52;435501;1251;106976;-43
2023/06/27 17:30:56;;;;;;;3.70;0.90;;;;;;;18.85;48.61;98282.92;435637;1250;99300;-43
2023/06/27 17:41:03;;;;;;;4.50;1.40;;;;;;;18.66;49.08;98289.42;435689;1252;107168;-43
2023/06/27 17:51:10;;;;;;;3.30;1.30;;;;;;;18.48;49.57;98290.80;435760;1253;99167;-43
2023/06/27 18:01:17;;;;;;;1.60;0.90;;;;;;;18.25;49.75;98301.95;435724;1252;113151;-42
2023/06/27 18:11:28;;;;;;;5.20;1.00;;;;;;;17.96;50.14;98305.89;435585;1251;108488;-42
2023/06/27 18:21:36;;;;;;;4.20;1.20;;;;;;;17.68;50.63;98301.11;435634;1249;98082;-43
2023/06/27 18:31:43;;;;;;;4.10;1.70;;;;;;;17.48;51.06;98301.19;435655;1253;109610;-43
2023/06/27 18:41:52;;;;;;;7.20;1.40;;;;;;;17.17;51.62;98293.93;435720;1253;97979;-43
2023/06/27 18:51:58;;;;;;;2.60;1.70;;;;;;;16.95;52.32;98306.67;435798;1253;111022;-42
2023/06/27 19:02:11;;;;;;;4.40;1.00;;;;;;;16.67;52.88;98321.95;435801;1253;106688;-43
2023/06/27 19:12:19;;;;;;;4.30;1.20;;;;;;;16.39;53.48;98331.48;435935;1253;99313;-41
2023/06/27 19:22:26;;;;;;;1.80;1.00;;;;;;;16.10;54.21;98337.21;435865;1253;108516;-42
2023/06/27 19:32:33;;;;;;;7.00;2.00;;;;;;;15.91;54.67;98333.97;435993;1251;99330;-44
2023/06/27 19:42:41;;;;;;;1.10;0.80;;;;;;;15.74;54.93;98333.58;435953;1251;112046;-42
2023/06/27 19:52:48;;;;;;;2.00;1.50;;;;;;;15.53;55.24;98338.86;435870;1251;108554;-43
2023/06/27 20:13:03;;;;;;;2.80;1.00;;;;;;;15.13;56.48;98359.16;435752;1254;106688;-41
2023/06/27 20:23:10;;;;;;;3.30;1.20;;;;;;;14.96;57.08;98357.83;435890;1249;99268;-42
2023/06/27 20:33:17;;;;;;;4.20;1.30;;;;;;;14.84;57.50;98358.54;435741;1251;112044;-43
2023/06/27 20:53:31;;;;;;;3.80;1.30;;;;;;;14.42;58.24;98360.38;436073;1253;99218;-42
2023/06/27 21:03:39;;;;;;;2.40;1.00;;;;;;;14.31;58.64;98348.14;435884;1251;107814;-44
2023/06/27 21:13:48;;;;;;;5.00;1.10;;;;;;;14.14;58.95;98347.22;435692;1263;99346;-41
2023/06/27 21:23:55;;;;;;;1.20;0.90;;;;;;;13.98;59.55;98338.16;436033;1252;109926;-42
2023/06/27 21:34:02;;;;;;;3.00;1.50;;;;;;;13.85;60.01;98342.50;435954;1263;108091;-43
2023/06/27 21:44:08;;;;;;;3.80;1.30;;;;;;;13.69;60.39;98343.64;435962;1254;99285;-42
2023/06/27 21:54:15;;;;;;;4.60;1.40;;;;;;;13.58;60.66;98336.98;435542;1251;107459;-43
2023/06/27 22:04:23;;;;;;;2.40;1.00;;;;;;;13.51;61.06;98330.77;435772;1254;99355;-43
2023/06/27 22:14:32;;;;;;;6.90;1.60;;;;;;;13.45;61.54;98332.31;435935;1253;111477;-43
2023/06/27 22:24:39;;;;;;;3.40;1.60;;;;;;;13.19;61.93;98333.65;435844;1263;108309;-41
2023/06/27 22:34:46;;;;;;;4.60;1.50;;;;;;;12.99;62.43;98336.39;436033;1253;98011;-41
2023/06/27 22:44:52;;;;;;;3.30;1.20;;;;;;;12.99;63.42;98335.54;435962;1263;107992;-41
2023/06/27 22:54:59;;;;;;;5.80;1.60;;;;;;;13.00;64.23;98345.11;436229;1254;98807;-43
2023/06/27 23:05:09;;;;;;;5.80;1.90;;;;;;;12.89;64.82;98348.98;436014;1251;112359;-42
2023/06/27 23:15:16;;;;;;;4.40;1.80;;;;;;;12.81;65.33;98351.35;435939;1249;107846;-42
2023/06/27 23:25:24;;;;;;;5.90;1.60;;;;;;;12.70;65.87;98351.33;436166;1253;97963;-42
2023/06/27 23:35:32;;;;;;;3.00;1.20;;;;;;;12.72;66.24;98354.80;436089;1264;108048;-42
2023/06/27 23:45:39;;;;;;;3.50;1.50;;;;;;;12.70;66.44;98360.52;436047;1254;98820;-42
2023/06/27 23:55:46;;;;;;;6.80;1.80;;;;;;;12.54;67.36;98356.80;436122;1251;111397;-42
